Time;durP1;ratioP1;P1;durP2;ratioP2;P2;SDS_P1;SDS_P2;PMS_P1;PMS_P2;Temp;Humidity;BMP_temperature;BMP_pressure;BME280_temperature;BME280_humidity;BME280_pressure;Samples;Min_cycle;Max_cycle;Signal;HPM_P1;HPM_P2
2023/04/27 00:01:33;;;;;;;7.20;6.60;;;;;;;4.10;74.02;101494.41;5113998;28;20188;-66
2023/04/27 00:04:00;;;;;;;8.43;7.40;;;;;;;4.06;74.60;101490.09;5113700;28;20283;-66
2023/04/27 00:06:27;;;;;;;7.00;6.70;;;;;;;4.00;75.10;101495.63;5113643;28;20216;-66
2023/04/27 00:08:53;;;;;;;8.03;7.57;;;;;;;3.98;75.52;101497.44;5113707;28;20215;-66
2023/04/27 00:11:20;;;;;;;7.50;7.00;;;;;;;3.93;75.93;101494.94;5113895;28;20195;-66
2023/04/27 00:13:47;;;;;;;6.73;6.43;;;;;;;3.90;75.94;101496.81;5113861;28;20198;-66
2023/04/27 00:16:13;;;;;;;8.40;7.27;;;;;;;3.85;75.68;101496.94;5113718;28;20211;-66
2023/04/27 00:18:40;;;;;;;7.37;6.77;;;;;;;3.80;75.81;101498.88;5114434;28;20193;-66
2023/04/27 00:21:08;;;;;;;7.53;7.23;;;;;;;3.75;75.63;101506.97;5113818;28;20673;-66
2023/04/27 00:23:35;;;;;;;7.67;7.13;;;;;;;3.72;76.93;101512.38;5113519;28;20188;-66
2023/04/27 00:26:01;;;;;;;7.00;6.53;;;;;;;3.65;76.50;101513.47;5113733;28;20205;-66
2023/04/27 00:28:28;;;;;;;7.53;7.23;;;;;;;3.61;76.53;101510.03;5113639;28;20569;-66
2023/04/27 00:30:57;;;;;;;8.30;7.80;;;;;;;3.57;76.78;101507.56;5095245;28;20283;-66
2023/04/27 00:33:26;;;;;;;8.20;7.70;;;;;;;3.53;76.62;101511.19;5113717;28;20651;-66
2023/04/27 00:35:52;;;;;;;9.13;8.43;;;;;;;3.45;77.13;101510.53;5095078;28;20221;-66
2023/04/27 00:38:19;;;;;;;7.80;7.30;;;;;;;3.38;77.23;101505.44;5113661;28;20270;-66
2023/04/27 00:40:46;;;;;;;8.50;7.90;;;;;;;3.34;77.10;101506.44;5113642;28;20741;-66
2023/04/27 00:43:13;;;;;;;8.57;8.13;;;;;;;3.29;77.44;101513.66;5113372;28;20700;-66
2023/04/27 00:45:42;;;;;;;8.87;8.23;;;;;;;3.23;76.98;101516.47;5095290;28;20219;-66
2023/04/27 00:48:11;;;;;;;10.27;9.20;;;;;;;3.17;77.25;101520.16;5095042;28;20203;-66
2023/04/27 00:50:39;;;;;;;9.67;9.03;;;;;;;3.15;77.72;101516.69;5095051;28;20194;-66
2023/04/27 00:53:06;;;;;;;8.23;7.67;;;;;;;3.09;77.33;101524.81;5113291;28;20269;-66
2023/04/27 00:55:33;;;;;;;8.63;7.93;;;;;;;2.90;77.47;101527.09;5113571;28;20295;-66
2023/04/27 00:58:01;;;;;;;7.00;6.73;;;;;;;2.86;77.46;101514.84;5094934;28;20186;-66
2023/04/27 01:00:27;;;;;;;7.33;6.80;;;;;;;2.64;78.73;101519.84;5094993;28;20212;-66
2023/04/27 01:02:54;;;;;;;7.73;7.23;;;;;;;2.61;77.89;101521.69;5113732;28;20190;-66
2023/04/27 01:05:24;;;;;;;7.67;6.97;;;;;;;2.50;78.54;101520.19;5113411;28;20576;-66
2023/04/27 01:07:50;;;;;;;9.57;7.40;;;;;;;2.43;78.53;101530.97;5114377;28;20284;-66
2023/04/27 01:10:18;;;;;;;8.00;7.40;;;;;;;2.39;79.04;101535.44;5116920;28;20220;-66
2023/04/27 01:12:45;;;;;;;8.77;8.17;;;;;;;2.36;79.54;101530.25;5117498;28;20246;-66
2023/04/27 01:15:11;;;;;;;7.67;7.13;;;;;;;2.34;79.24;101526.78;5098474;28;20320;-66
2023/04/27 01:17:37;;;;;;;7.77;7.17;;;;;;;2.32;79.81;101531.22;5117258;28;20228;-66
2023/04/27 01:20:06;;;;;;;8.07;7.57;;;;;;;2.29;80.26;101533.94;5116967;28;20189;-66
2023/04/27 01:22:32;;;;;;;8.10;7.73;;;;;;;2.23;80.58;101523.53;5098391;28;20193;-66
2023/04/27 01:24:59;;;;;;;8.10;7.60;;;;;;;2.23;80.29;101528.84;5098522;28;20203;-66
2023/04/27 01:27:25;;;;;;;7.13;6.83;;;;;;;2.23;80.63;101526.19;5116753;28;20238;-66
2023/04/27 01:29:51;;;;;;;8.53;7.80;;;;;;;2.18;81.26;101530.69;5116823;28;20197;-66
2023/04/27 01:32:18;;;;;;;7.00;6.60;;;;;;;2.15;81.10;101536.06;5098423;28;20197;-66
2023/04/27 01:34:44;;;;;;;8.53;7.90;;;;;;;2.13;81.35;101534.34;5116337;28;20191;-66
2023/04/27 01:37:10;;;;;;;7.60;7.40;;;;;;;2.11;81.13;101530.00;5098176;28;20193;-66
2023/04/27 01:39:37;;;;;;;8.57;7.97;;;;;;;2.07;81.28;101534.47;5116815;28;20185;-66
2023/04/27 01:42:03;;;;;;;8.00;7.43;;;;;;;2.07;81.45;101536.25;5098087;28;20229;-66
2023/04/27 01:44:30;;;;;;;8.17;7.57;;;;;;;2.05;81.64;101540.69;5116469;28;20592;-66
2023/04/27 01:46:56;;;;;;;7.13;6.93;;;;;;;2.04;81.63;101534.53;5116064;28;20207;-66
2023/04/27 01:49:23;;;;;;;8.53;6.73;;;;;;;2.03;81.59;101535.44;5097897;28;20191;-66
2023/04/27 01:51:50;;;;;;;7.80;7.07;;;;;;;2.03;81.90;101542.50;5097835;28;20219;-66
2023/04/27 01:54:16;;;;;;;8.40;7.80;;;;;;;1.99;82.16;101533.78;5116032;28;20186;-66
2023/04/27 01:56:43;;;;;;;7.07;6.53;;;;;;;1.99;81.90;101532.88;5115972;28;20199;-66
2023/04/27 01:59:09;;;;;;;7.30;6.87;;;;;;;1.98;82.40;101541.75;5097699;28;20189;-66
2023/04/27 02:01:35;;;;;;;9.07;7.53;;;;;;;2.00;82.18;101543.44;5116444;28;20226;-66
2023/04/27 02:04:02;;;;;;;10.77;8.57;;;;;;;1.94;82.25;101558.53;5115821;28;20220;-66
2023/04/27 02:06:30;;;;;;;9.27;8.00;;;;;;;1.90;82.80;101544.56;5097462;28;20382;-66
2023/04/27 02:08:56;;;;;;;9.73;8.80;;;;;;;1.96;83.24;101539.13;5097449;28;20205;-66
2023/04/27 02:11:23;;;;;;;9.20;8.40;;;;;;;1.99;83.48;101546.09;5115922;28;20195;-66
2023/04/27 02:13:49;;;;;;;11.17;9.57;;;;;;;2.04;83.96;101549.53;5097398;28;20647;-66
2023/04/27 02:16:16;;;;;;;9.73;8.90;;;;;;;2.08;84.17;101549.44;5097266;28;20754;-66
2023/04/27 02:18:43;;;;;;;10.60;9.57;;;;;;;2.11;84.58;101543.19;5097873;28;20189;-66
2023/04/27 02:21:10;;;;;;;9.27;8.47;;;;;;;2.21;84.70;101551.78;5096891;28;20292;-66
2023/04/27 02:23:36;;;;;;;10.00;9.20;;;;;;;2.24;84.89;101552.56;5115497;28;20284;-66
2023/04/27 02:26:03;;;;;;;8.83;8.17;;;;;;;2.28;84.80;101546.31;5097069;28;20300;-66
2023/04/27 02:28:30;;;;;;;8.77;8.27;;;;;;;2.29;84.98;101547.16;5096879;28;20224;-66
2023/04/27 02:30:57;;;;;;;9.97;8.97;;;;;;;2.34;85.13;101545.28;5097852;28;20243;-66
2023/04/27 02:33:23;;;;;;;10.20;9.27;;;;;;;2.37;85.20;101539.03;5096966;28;20193;-66
2023/04/27 02:35:50;;;;;;;12.70;9.37;;;;;;;2.39;85.00;101539.88;5097306;28;20315;-66
2023/04/27 02:38:16;;;;;;;9.73;9.13;;;;;;;2.35;84.99;101536.47;5115184;28;20184;-66
2023/04/27 02:40:43;;;;;;;10.07;9.17;;;;;;;2.35;85.50;101531.16;5115429;28;20200;-66
2023/04/27 02:43:09;;;;;;;9.83;9.00;;;;;;;2.36;85.25;101532.03;5115621;28;20648;-66
2023/04/27 02:45:37;;;;;;;9.13;8.60;;;;;;;2.32;84.88;101536.50;5096924;28;20213;-66
2023/04/27 02:48:04;;;;;;;12.20;10.00;;;;;;;2.28;85.03;101535.72;5096684;28;20617;-66
2023/04/27 02:50:32;;;;;;;9.47;8.57;;;;;;;2.22;84.87;101533.22;5097012;28;20532;-66
2023/04/27 02:52:59;;;;;;;9.60;8.87;;;;;;;2.20;85.21;101536.81;5115360;28;20189;-66
2023/04/27 02:55:26;;;;;;;10.00;9.20;;;;;;;2.24;85.07;101541.13;5096581;28;20233;-66
2023/04/27 02:57:52;;;;;;;10.70;9.80;;;;;;;2.25;84.92;101533.16;5096591;28;20193;-66
2023/04/27 03:00:19;;;;;;;8.50;8.20;;;;;;;2.28;84.78;101532.22;5096520;28;20200;-66
2023/04/27 03:02:45;;;;;;;11.33;8.67;;;;;;;2.25;85.08;101538.47;5114702;28;20191;-66
2023/04/27 03:05:12;;;;;;;11.00;9.40;;;;;;;2.21;84.65;101535.91;5096350;28;20262;-66
2023/04/27 03:07:38;;;;;;;12.33;9.17;;;;;;;2.17;84.92;101531.59;5096325;28;20698;-66
2023/04/27 03:10:05;;;;;;;10.90;9.93;;;;;;;2.02;85.39;101524.91;5114601;28;20301;-66
2023/04/27 03:12:31;;;;;;;9.67;8.53;;;;;;;2.01;85.78;101513.50;5114502;28;20195;-66
2023/04/27 03:14:58;;;;;;;15.77;10.10;;;;;;;2.05;85.61;101516.91;5114749;28;20162;-66
2023/04/27 03:17:25;;;;;;;18.23;10.47;;;;;;;2.05;85.51;101514.28;5096233;28;20185;-66
2023/04/27 03:19:51;;;;;;;11.00;10.03;;;;;;;2.03;85.07;101516.94;5114417;28;20169;-66
2023/04/27 03:22:18;;;;;;;22.30;10.60;;;;;;;1.98;85.67;101513.53;5114638;28;20193;-66
2023/04/27 03:24:45;;;;;;;11.67;10.47;;;;;;;1.99;85.53;101519.69;5114498;28;20667;-66
2023/04/27 03:27:11;;;;;;;10.10;9.40;;;;;;;2.00;85.31;101521.44;5095867;28;20706;-66
2023/04/27 03:29:38;;;;;;;10.10;9.20;;;;;;;2.02;85.63;101522.28;5096227;28;20648;-66
2023/04/27 03:32:05;;;;;;;33.33;11.47;;;;;;;1.98;86.16;101512.69;5114369;28;20272;-66
2023/04/27 03:34:31;;;;;;;13.10;9.67;;;;;;;1.99;85.86;101524.97;5095926;28;20551;-66
2023/04/27 03:36:58;;;;;;;11.90;10.30;;;;;;;2.01;85.99;101523.16;5114346;28;20548;-66
2023/04/27 03:39:24;;;;;;;11.83;10.60;;;;;;;2.00;86.12;101524.09;5114644;28;20535;-66
2023/04/27 03:41:51;;;;;;;19.40;10.80;;;;;;;2.00;85.49;101522.31;5114358;28;20214;-66
2023/04/27 03:44:17;;;;;;;10.83;10.03;;;;;;;1.92;86.36;101525.13;5114288;28;20276;-66
2023/04/27 03:46:44;;;;;;;11.07;9.90;;;;;;;1.91;86.57;101526.00;5095746;28;20270;-66
2023/04/27 03:49:10;;;;;;;9.93;9.17;;;;;;;1.95;86.47;101533.88;5113830;28;20288;-66
2023/04/27 03:51:41;;;;;;;9.93;9.07;;;;;;;1.96;86.42;101531.19;5095681;28;20185;-66
2023/04/27 03:54:08;;;;;;;9.77;8.93;;;;;;;1.98;86.44;101533.81;5095705;28;20288;-66
2023/04/27 03:56:35;;;;;;;10.00;9.03;;;;;;;1.97;86.67;101538.22;5095552;28;20296;-66
2023/04/27 03:59:03;;;;;;;11.10;9.73;;;;;;;1.91;86.05;101536.59;5095461;28;20192;-66
2023/04/27 04:01:32;;;;;;;14.63;13.10;;;;;;;1.89;86.31;101542.81;5114035;28;20192;-66
2023/04/27 04:03:59;;;;;;;17.27;15.40;;;;;;;1.87;86.38;101550.78;5095427;28;20652;-66
2023/04/27 04:06:26;;;;;;;26.83;16.17;;;;;;;1.82;86.77;101554.41;5114503;28;20273;-66
2023/04/27 04:08:54;;;;;;;17.73;13.83;;;;;;;1.84;86.58;101552.59;5095336;28;20237;-66
2023/04/27 04:11:21;;;;;;;12.10;11.20;;;;;;;1.83;86.15;101556.16;5095396;28;20434;-66
2023/04/27 04:13:49;;;;;;;9.17;8.70;;;;;;;1.78;86.15;101556.25;5095624;28;20197;-66
2023/04/27 04:16:15;;;;;;;15.00;9.23;;;;;;;1.75;86.20;101561.63;5113629;28;20283;-66
2023/04/27 04:18:42;;;;;;;11.07;8.60;;;;;;;1.75;86.21;101566.91;5113528;28;20177;-66
2023/04/27 04:21:12;;;;;;;10.03;9.23;;;;;;;1.72;85.52;101563.44;5095325;28;20217;-66
2023/04/27 04:23:39;;;;;;;10.83;8.43;;;;;;;1.64;86.64;101559.19;5095283;28;20224;-66
2023/04/27 04:26:07;;;;;;;12.50;9.03;;;;;;;1.66;85.74;101557.41;5095157;28;20209;-66
2023/04/27 04:28:34;;;;;;;11.20;9.37;;;;;;;1.65;86.15;101560.94;5095221;28;20262;-66
2023/04/27 04:31:01;;;;;;;11.17;10.23;;;;;;;1.69;86.79;101559.09;5113737;28;20181;-65
2023/04/27 04:33:28;;;;;;;13.07;9.90;;;;;;;1.70;86.86;101553.78;5113761;28;20222;-66
2023/04/27 04:35:54;;;;;;;11.73;9.30;;;;;;;1.76;86.42;101565.13;5095129;28;20213;-66
2023/04/27 04:38:22;;;;;;;10.20;9.23;;;;;;;1.77;86.64;101566.84;5095462;28;20190;-66
2023/04/27 04:40:49;;;;;;;9.33;8.63;;;;;;;1.79;86.37;101565.91;5095182;28;20663;-66
2023/04/27 04:43:15;;;;;;;9.53;8.57;;;;;;;1.80;86.97;101564.16;5096911;28;20266;-66
2023/04/27 04:45:42;;;;;;;11.00;9.67;;;;;;;1.79;86.75;101567.69;5117345;28;20201;-65
2023/04/27 04:48:13;;;;;;;11.97;10.90;;;;;;;1.83;87.64;101564.94;5099205;28;20209;-65
2023/04/27 04:50:40;;;;;;;9.30;8.53;;;;;;;1.88;87.15;101570.13;5099064;28;20243;-65
2023/04/27 04:53:07;;;;;;;13.53;9.63;;;;;;;1.96;87.38;101562.88;5098927;28;20185;-65
2023/04/27 04:55:33;;;;;;;10.17;9.37;;;;;;;1.99;87.72;101572.50;5099065;28;20563;-66
2023/04/27 04:58:00;;;;;;;10.93;10.13;;;;;;;2.12;87.90;101568.69;5098853;28;20192;-66
2023/04/27 05:00:27;;;;;;;12.00;9.63;;;;;;;2.23;87.05;101566.69;5117680;28;20177;-66
2023/04/27 05:02:53;;;;;;;17.43;11.17;;;;;;;2.31;86.73;101559.44;5098818;28;20196;-66
2023/04/27 05:05:20;;;;;;;13.67;11.13;;;;;;;2.43;86.43;101565.34;5117157;28;20207;-66
2023/04/27 05:07:46;;;;;;;14.67;10.37;;;;;;;2.55;86.17;101563.25;5116822;28;20674;-66
2023/04/27 05:10:12;;;;;;;15.67;10.87;;;;;;;2.62;86.00;101566.59;5117708;28;20481;-66
2023/04/27 05:12:39;;;;;;;13.60;11.00;;;;;;;2.72;85.99;101577.81;5116838;28;20183;-66
2023/04/27 05:15:06;;;;;;;15.53;11.93;;;;;;;2.82;85.80;101574.03;5116700;28;20220;-66
2023/04/27 05:17:33;;;;;;;14.07;11.47;;;;;;;2.90;85.19;101577.34;5116626;28;20189;-66
2023/04/27 05:19:59;;;;;;;14.03;11.50;;;;;;;3.05;84.57;101588.44;5116698;28;20181;-66
2023/04/27 05:22:26;;;;;;;14.33;11.10;;;;;;;3.17;84.04;101585.47;5117034;28;20181;-66
2023/04/27 05:24:52;;;;;;;16.10;10.17;;;;;;;3.27;84.21;101578.13;5116604;28;20189;-66
2023/04/27 05:27:19;;;;;;;18.87;11.23;;;;;;;3.37;83.69;101596.34;5116967;28;20566;-66
2023/04/27 05:29:45;;;;;;;20.33;12.27;;;;;;;3.51;83.80;101597.75;5116430;28;20209;-66
2023/04/27 05:32:11;;;;;;;12.37;11.27;;;;;;;3.63;83.41;101594.75;5116688;28;20190;-66
2023/04/27 05:34:38;;;;;;;12.37;10.73;;;;;;;3.73;83.00;101603.31;5116408;28;20526;-66
2023/04/27 05:37:04;;;;;;;18.97;11.17;;;;;;;3.88;82.73;101613.47;5116201;28;20297;-66
2023/04/27 05:39:30;;;;;;;12.67;11.40;;;;;;;3.97;82.15;101605.22;5116560;28;20222;-66
2023/04/27 05:41:57;;;;;;;22.70;12.17;;;;;;;4.07;81.41;101612.88;5116518;28;20210;-66
2023/04/27 05:44:27;;;;;;;24.60;12.37;;;;;;;4.12;80.86;101614.50;5116166;28;20187;-66
2023/04/27 05:46:54;;;;;;;18.33;11.00;;;;;;;4.28;80.46;101611.38;5115987;28;20302;-66
2023/04/27 05:49:21;;;;;;;12.73;11.40;;;;;;;4.33;79.73;101604.13;5116415;28;20202;-66
2023/04/27 05:51:47;;;;;;;21.87;11.33;;;;;;;4.43;79.93;101609.09;5116252;28;20184;-66
2023/04/27 05:54:14;;;;;;;18.43;12.53;;;;;;;4.53;79.37;101611.47;5114640;28;20198;-66
2023/04/27 05:56:40;;;;;;;28.97;13.00;;;;;;;4.60;78.51;101621.81;5116043;28;20621;-66
2023/04/27 05:59:07;;;;;;;12.97;10.87;;;;;;;4.69;78.86;101624.19;5115944;28;20189;-66
2023/04/27 06:01:33;;;;;;;14.63;11.27;;;;;;;4.83;78.25;101620.19;5115944;28;20192;-66
2023/04/27 06:04:00;;;;;;;15.47;11.53;;;;;;;4.87;78.23;101622.69;5116285;28;20275;-66
2023/04/27 06:06:27;;;;;;;13.17;10.77;;;;;;;4.99;77.74;101620.53;5115861;28;20208;-66
2023/04/27 06:08:53;;;;;;;16.40;11.27;;;;;;;5.09;76.49;101629.91;5115942;28;20587;-67
2023/04/27 06:11:20;;;;;;;16.57;11.60;;;;;;;5.24;76.82;101628.50;5115893;28;20681;-66
2023/04/27 06:13:47;;;;;;;16.20;12.10;;;;;;;5.33;76.65;101631.72;5116446;28;20646;-67
2023/04/27 06:16:13;;;;;;;11.97;10.90;;;;;;;5.39;75.89;101632.41;5115524;28;20219;-67
2023/04/27 06:18:39;;;;;;;13.13;10.50;;;;;;;5.49;74.59;101625.88;5115821;28;20181;-66
2023/04/27 06:21:06;;;;;;;14.60;10.73;;;;;;;5.65;74.59;101634.13;5115865;28;20185;-66
2023/04/27 06:23:32;;;;;;;13.67;9.50;;;;;;;5.74;73.40;101628.47;5115493;28;20192;-66
2023/04/27 06:25:59;;;;;;;11.30;10.10;;;;;;;5.92;74.45;101629.59;5115390;28;20553;-67
2023/04/27 06:28:25;;;;;;;11.40;10.30;;;;;;;5.99;72.82;101627.63;5115307;28;20582;-66
2023/04/27 06:30:52;;;;;;;10.37;9.47;;;;;;;6.09;71.83;101624.53;5115585;28;20350;-66
2023/04/27 06:33:19;;;;;;;19.40;10.23;;;;;;;6.16;71.28;101622.50;5115832;28;20271;-67
2023/04/27 06:35:45;;;;;;;9.57;8.83;;;;;;;6.28;70.35;101624.69;5097089;28;20207;-66
2023/04/27 06:38:13;;;;;;;8.60;7.83;;;;;;;6.30;67.51;101625.50;5115489;28;20227;-66
2023/04/27 06:40:39;;;;;;;8.63;7.83;;;;;;;6.35;66.21;101620.84;5115178;28;20173;-66
2023/04/27 06:43:05;;;;;;;7.37;6.83;;;;;;;6.34;65.79;101628.88;5115010;28;20187;-66
2023/04/27 06:45:32;;;;;;;7.83;7.17;;;;;;;6.35;65.18;101630.63;5115099;28;20771;-66
2023/04/27 06:47:58;;;;;;;10.67;7.17;;;;;;;6.40;65.26;101618.00;5115461;28;20191;-67
2023/04/27 06:50:25;;;;;;;6.63;6.17;;;;;;;6.56;65.48;101624.44;5115143;28;20205;-66
2023/04/27 06:52:51;;;;;;;7.17;6.87;;;;;;;6.73;64.51;101629.09;5115105;28;20523;-67
2023/04/27 06:55:17;;;;;;;8.10;7.27;;;;;;;6.82;64.05;101618.06;5114702;28;20213;-66
2023/04/27 06:57:44;;;;;;;8.13;7.13;;;;;;;6.92;63.12;101622.97;5114700;28;20185;-66
2023/04/27 07:00:12;;;;;;;6.67;6.47;;;;;;;7.03;62.35;101626.91;5114745;28;20191;-66
2023/04/27 07:02:38;;;;;;;7.03;6.67;;;;;;;7.19;63.14;101619.13;5115306;28;20745;-67
2023/04/27 07:05:05;;;;;;;7.60;6.97;;;;;;;7.32;61.47;101615.94;5114365;28;20270;-67
2023/04/27 07:07:32;;;;;;;7.00;6.73;;;;;;;7.44;60.93;101612.72;5115012;28;20299;-66
2023/04/27 07:09:58;;;;;;;7.63;7.03;;;;;;;7.52;60.73;101625.69;5114505;28;20199;-66
2023/04/27 07:12:24;;;;;;;7.23;6.67;;;;;;;7.51;58.58;101619.50;5114520;28;20529;-67
2023/04/27 07:14:51;;;;;;;6.93;6.30;;;;;;;7.57;58.33;101613.06;5114656;28;20189;-66
2023/04/27 07:17:17;;;;;;;6.87;6.23;;;;;;;7.70;58.57;101610.69;5114372;28;20278;-66
2023/04/27 07:19:43;;;;;;;7.47;7.00;;;;;;;7.79;56.97;101615.63;5114716;28;20514;-67
2023/04/27 07:22:10;;;;;;;6.60;6.20;;;;;;;7.85;56.39;101612.66;5114377;28;20185;-66
2023/04/27 07:24:36;;;;;;;10.03;5.90;;;;;;;8.01;56.58;101619.00;5114366;28;20200;-66
2023/04/27 07:27:03;;;;;;;5.17;4.87;;;;;;;8.19;55.77;101619.97;5114022;28;20212;-66
2023/04/27 07:29:29;;;;;;;6.43;6.03;;;;;;;8.29;55.44;101628.41;5114333;28;20211;-66
2023/04/27 07:31:56;;;;;;;6.80;5.00;;;;;;;8.33;54.75;101616.59;5114222;28;20185;-66
2023/04/27 07:34:23;;;;;;;5.80;5.57;;;;;;;8.38;54.06;101611.06;5114612;28;20185;-66
2023/04/27 07:36:52;;;;;;;5.57;5.27;;;;;;;8.43;53.41;101609.09;5114050;28;20292;-67
2023/04/27 07:39:19;;;;;;;5.60;5.37;;;;;;;8.55;53.02;101620.94;5113983;28;20271;-67
2023/04/27 07:41:47;;;;;;;5.13;4.87;;;;;;;8.41;51.50;101614.47;5114048;28;20275;-67
2023/04/27 07:44:14;;;;;;;4.57;4.40;;;;;;;8.54;52.34;101614.75;5113965;28;20185;-67
2023/04/27 07:46:40;;;;;;;4.60;4.50;;;;;;;8.65;50.28;101619.56;5113864;28;20204;-67
2023/04/27 07:49:06;;;;;;;6.07;3.63;;;;;;;8.78;50.69;101622.50;5114335;28;20299;-67
2023/04/27 07:51:33;;;;;;;4.53;4.43;;;;;;;8.71;48.75;101611.22;5114119;28;20189;-67
2023/04/27 07:54:01;;;;;;;5.00;4.90;;;;;;;8.82;49.11;101608.91;5113857;28;20190;-66
2023/04/27 07:56:27;;;;;;;5.47;5.13;;;;;;;8.99;50.31;101616.06;5113775;28;20211;-67
2023/04/27 07:58:54;;;;;;;4.33;4.23;;;;;;;9.10;50.22;101612.84;5113705;28;20191;-67
2023/04/27 08:01:20;;;;;;;5.10;4.90;;;;;;;9.29;49.94;101615.41;5113802;28;20191;-67
2023/04/27 08:03:47;;;;;;;9.57;4.40;;;;;;;9.50;50.27;101610.75;5113970;28;20652;-67
2023/04/27 08:06:14;;;;;;;4.90;4.70;;;;;;;9.55;49.30;101617.59;5113686;28;20209;-67
2023/04/27 08:08:41;;;;;;;4.60;4.43;;;;;;;9.68;49.00;101614.28;5114231;28;20217;-67
2023/04/27 08:11:11;;;;;;;7.67;4.83;;;;;;;9.62;47.08;101619.94;5113993;28;20195;-67
2023/04/27 08:13:37;;;;;;;3.97;3.97;;;;;;;9.67;45.99;101615.19;5114055;28;20180;-67
2023/04/27 08:16:04;;;;;;;5.30;5.20;;;;;;;9.51;46.01;101607.16;5113795;28;20296;-67
2023/04/27 08:18:31;;;;;;;4.53;4.33;;;;;;;9.68;48.48;101607.09;5116045;28;20185;-67
2023/04/27 08:20:58;;;;;;;4.70;4.50;;;;;;;9.73;48.17;101602.38;5117809;28;20185;-67
2023/04/27 08:23:28;;;;;;;6.80;4.93;;;;;;;9.92;47.26;101599.56;5118402;28;20272;-67
2023/04/27 08:25:54;;;;;;;4.13;4.03;;;;;;;9.92;45.79;101596.88;5117719;28;20209;-67
2023/04/27 08:28:22;;;;;;;4.80;4.53;;;;;;;9.95;47.07;101590.50;5117864;28;20207;-67
2023/04/27 08:30:48;;;;;;;4.67;4.40;;;;;;;9.92;45.89;101598.69;5117881;28;20208;-67
2023/04/27 08:33:15;;;;;;;5.37;4.93;;;;;;;10.10;44.51;101594.97;5118232;28;20264;-67
2023/04/27 08:35:41;;;;;;;5.40;4.53;;;;;;;10.07;44.66;101589.81;5117523;28;20257;-67
2023/04/27 08:38:07;;;;;;;5.67;5.37;;;;;;;10.14;45.90;101584.97;5117774;28;20553;-67
2023/04/27 08:40:34;;;;;;;5.17;4.70;;;;;;;10.23;47.22;101581.78;5117783;28;20196;-67
2023/04/27 08:43:00;;;;;;;5.57;5.27;;;;;;;10.33;45.47;101593.72;5099401;28;20185;-67
2023/04/27 08:45:27;;;;;;;13.23;6.00;;;;;;;10.53;45.18;101589.91;5117293;28;20212;-67
2023/04/27 08:47:54;;;;;;;5.60;5.50;;;;;;;10.62;43.37;101588.50;5117864;28;20185;-67
2023/04/27 08:50:22;;;;;;;4.70;4.50;;;;;;;10.54;42.63;101585.44;5099588;28;20295;-67
2023/04/27 08:52:49;;;;;;;4.27;3.97;;;;;;;10.78;44.37;101583.13;5117222;28;20189;-67
2023/04/27 08:55:16;;;;;;;4.70;4.40;;;;;;;10.76;41.90;101582.34;5117310;28;20208;-67
2023/04/27 08:57:53;;;;;;;5.37;5.07;;;;;;;10.95;43.17;101587.50;5117200;28;20185;-67
2023/04/27 09:00:20;;;;;;;4.27;4.00;;;;;;;11.10;42.89;101581.19;5117241;28;20252;-67
2023/04/27 09:02:47;;;;;;;14.47;5.33;;;;;;;11.02;43.06;101580.81;5117253;28;20226;-67
2023/04/27 09:05:22;;;;;;;5.13;4.70;;;;;;;11.29;44.49;101586.31;5117457;28;20204;-67
2023/04/27 09:08:07;;;;;;;4.07;4.07;;;;;;;11.50;43.60;101582.31;5116972;28;20680;-67
2023/04/27 09:11:02;;;;;;;5.20;4.80;;;;;;;11.19;42.11;101579.78;5117289;28;20201;-67
2023/04/27 09:13:36;;;;;;;5.40;5.20;;;;;;;11.09;41.66;101584.00;5099884;28;20224;-67
2023/04/27 09:16:03;;;;;;;4.13;3.93;;;;;;;11.25;43.25;101574.94;5116941;28;20576;-67
2023/04/27 09:18:34;;;;;;;3.80;3.80;;;;;;;11.27;39.96;101574.81;5117309;28;20272;-67
2023/04/27 09:21:00;;;;;;;5.50;5.07;;;;;;;11.31;41.38;101565.63;5117100;28;20166;-65
2023/04/27 09:23:35;;;;;;;9.77;4.13;;;;;;;11.24;39.09;101561.59;5116600;28;20671;-65
2023/04/27 09:26:09;;;;;;;4.80;4.40;;;;;;;11.49;40.48;101564.50;5117005;28;20297;-65
2023/04/27 09:28:39;;;;;;;7.20;4.30;;;;;;;11.25;38.77;101563.31;5116235;28;20198;-65
2023/04/27 09:31:07;;;;;;;4.70;4.40;;;;;;;11.46;40.67;101566.50;5117046;28;20521;-65
2023/04/27 09:33:35;;;;;;;3.80;3.77;;;;;;;11.43;38.59;101570.22;5116742;28;20185;-65
2023/04/27 09:36:05;;;;;;;3.70;3.70;;;;;;;11.50;38.34;101574.25;5117230;28;20253;-65
2023/04/27 09:38:32;;;;;;;3.87;3.57;;;;;;;11.59;40.70;101562.09;5116758;28;20177;-65
2023/04/27 09:41:00;;;;;;;5.80;4.10;;;;;;;11.77;38.93;101560.06;5116855;28;20264;-65
2023/04/27 09:43:27;;;;;;;4.40;4.20;;;;;;;11.84;38.13;101558.72;5116295;28;20208;-65
2023/04/27 09:45:55;;;;;;;4.93;4.53;;;;;;;11.72;37.63;101559.50;5116115;28;20213;-65
2023/04/27 09:48:23;;;;;;;14.17;4.17;;;;;;;11.73;39.90;101557.66;5116737;28;20524;-65
2023/04/27 09:50:51;;;;;;;6.37;4.53;;;;;;;11.94;38.78;101567.06;5116850;28;20212;-65
2023/04/27 09:53:22;;;;;;;4.60;4.50;;;;;;;11.71;37.33;101561.31;5116071;28;20192;-65
2023/04/27 09:56:20;;;;;;;5.20;5.03;;;;;;;11.82;36.81;101552.56;5116435;28;20214;-65
2023/04/27 09:59:13;;;;;;;5.13;5.03;;;;;;;11.94;38.32;101550.97;5116512;28;20178;-65
2023/04/27 10:01:48;;;;;;;4.23;4.13;;;;;;;12.14;37.54;101544.31;5115860;28;20256;-65
2023/04/27 10:04:41;;;;;;;6.40;4.57;;;;;;;12.33;37.65;101547.53;5116094;28;20252;-66
2023/04/27 10:07:11;;;;;;;5.07;4.77;;;;;;;12.32;35.87;101544.94;5115767;28;20191;-65
2023/04/27 10:09:44;;;;;;;5.93;4.57;;;;;;;12.32;35.87;101539.56;5115732;28;20201;-67
2023/04/27 10:12:27;;;;;;;4.53;4.43;;;;;;;12.11;36.75;101541.81;5116138;28;20184;-67
2023/04/27 10:14:58;;;;;;;7.00;4.70;;;;;;;12.12;36.38;101546.25;5115851;28;20173;-67
2023/04/27 10:17:32;;;;;;;4.40;4.30;;;;;;;12.16;35.27;101531.63;5115988;28;20176;-66
2023/04/27 10:20:02;;;;;;;4.37;4.27;;;;;;;12.15;38.74;101534.44;5115819;28;20569;-66
2023/04/27 10:22:40;;;;;;;8.00;4.67;;;;;;;12.11;36.38;101529.28;5116049;28;20185;-66
2023/04/27 10:25:17;;;;;;;4.93;4.83;;;;;;;12.03;34.92;101526.22;5115402;28;20209;-68
2023/04/27 10:27:54;;;;;;;4.63;4.37;;;;;;;11.93;35.03;101526.94;5115571;28;20195;-67
2023/04/27 10:30:24;;;;;;;8.13;4.57;;;;;;;11.88;35.34;101533.44;5115383;28;20200;-67
2023/04/27 10:32:53;;;;;;;6.27;4.80;;;;;;;12.04;36.23;101519.00;5115869;28;20177;-67
2023/04/27 10:35:21;;;;;;;5.73;5.17;;;;;;;12.15;36.42;101513.81;5115577;28;20216;-67
2023/04/27 10:37:47;;;;;;;5.40;5.20;;;;;;;12.10;34.35;101515.94;5115221;28;20177;-67
2023/04/27 10:40:18;;;;;;;4.43;4.40;;;;;;;12.19;37.31;101514.50;5114397;28;20193;-67
2023/04/27 10:42:48;;;;;;;4.70;4.50;;;;;;;12.37;37.19;101512.38;5115365;28;20227;-67
2023/04/27 10:45:26;;;;;;;4.77;4.67;;;;;;;12.52;34.48;101508.66;5115242;28;20209;-67
2023/04/27 10:47:59;;;;;;;5.50;5.37;;;;;;;12.29;32.92;101502.16;5115273;28;20174;-67
2023/04/27 10:50:26;;;;;;;4.90;4.67;;;;;;;12.42;33.94;101511.09;5115149;28;20204;-67
2023/04/27 10:52:53;;;;;;;5.17;4.97;;;;;;;12.31;32.98;101503.78;5114865;28;20185;-67
2023/04/27 10:55:21;;;;;;;5.60;5.30;;;;;;;12.28;34.44;101508.47;5096581;28;20766;-67
2023/04/27 10:57:52;;;;;;;5.13;4.67;;;;;;;12.33;33.20;101503.66;5114837;28;20611;-67
2023/04/27 11:00:24;;;;;;;5.80;5.13;;;;;;;12.13;34.06;101508.53;5115051;28;20212;-67
2023/04/27 11:02:52;;;;;;;7.10;6.30;;;;;;;12.38;34.74;101500.66;5115276;28;20181;-67
2023/04/27 11:05:23;;;;;;;5.20;4.73;;;;;;;12.56;33.85;101499.44;5115431;28;20562;-68
2023/04/27 11:07:51;;;;;;;5.07;4.87;;;;;;;12.95;35.48;101501.22;5114942;28;20675;-66
2023/04/27 11:10:18;;;;;;;9.07;4.20;;;;;;;13.30;35.49;101492.53;5114657;28;20207;-66
2023/04/27 11:12:45;;;;;;;5.27;5.03;;;;;;;13.50;34.11;101490.25;5114708;28;20235;-66
2023/04/27 11:15:13;;;;;;;9.63;5.97;;;;;;;13.35;33.17;101500.28;5114405;28;20240;-65
2023/04/27 11:17:39;;;;;;;5.20;4.80;;;;;;;13.20;32.01;101494.13;5114315;28;20185;-65
2023/04/27 11:20:09;;;;;;;6.00;5.50;;;;;;;13.11;32.38;101503.69;5114945;28;20186;-65
2023/04/27 11:22:44;;;;;;;5.37;5.13;;;;;;;12.79;34.29;101495.19;5114658;28;20181;-65
2023/04/27 11:25:11;;;;;;;5.27;4.87;;;;;;;12.74;31.77;101497.34;5114481;28;20210;-65
2023/04/27 11:27:40;;;;;;;6.23;5.80;;;;;;;12.98;32.63;101492.94;5114233;28;20184;-65
2023/04/27 11:30:18;;;;;;;6.07;5.77;;;;;;;13.13;33.93;101496.38;5114115;28;20208;-65